sensor_id;sensor_type;location;lat;lon;timestamp;P1;durP1;ratioP1;P2;durP2;ratioP2
253;SDS011;590;48.772;8.846;2022-09-04T00:02:35;4.27;;;3.93;;
253;SDS011;590;48.772;8.846;2022-09-04T00:05:23;4.57;;;4.27;;
253;SDS011;590;48.772;8.846;2022-09-04T00:07:58;4.40;;;4.10;;
253;SDS011;590;48.772;8.846;2022-09-04T00:10:39;4.60;;;4.30;;
253;SDS011;590;48.772;8.846;2022-09-04T00:13:14;3.77;;;3.57;;
253;SDS011;590;48.772;8.846;2022-09-04T00:15:48;4.23;;;3.97;;
253;SDS011;590;48.772;8.846;2022-09-04T00:18:22;4.10;;;3.90;;
253;SDS011;590;48.772;8.846;2022-09-04T00:20:56;4.70;;;4.40;;
253;SDS011;590;48.772;8.846;2022-09-04T00:23:32;3.77;;;3.57;;
253;SDS011;590;48.772;8.846;2022-09-04T00:26:06;4.47;;;4.20;;
253;SDS011;590;48.772;8.846;2022-09-04T00:28:46;4.90;;;4.60;;
253;SDS011;590;48.772;8.846;2022-09-04T00:31:20;4.23;;;3.97;;
253;SDS011;590;48.772;8.846;2022-09-04T00:33:57;4.80;;;4.50;;
253;SDS011;590;48.772;8.846;2022-09-04T00:36:35;3.97;;;3.77;;
253;SDS011;590;48.772;8.846;2022-09-04T00:39:07;4.17;;;3.93;;
253;SDS011;590;48.772;8.846;2022-09-04T00:41:42;4.67;;;4.37;;
253;SDS011;590;48.772;8.846;2022-09-04T00:47:51;3.30;;;3.10;;
253;SDS011;590;48.772;8.846;2022-09-04T00:50:43;3.90;;;3.70;;
253;SDS011;590;48.772;8.846;2022-09-04T00:56:56;4.70;;;4.40;;
253;SDS011;590;48.772;8.846;2022-09-04T01:00:03;4.77;;;4.47;;
253;SDS011;590;48.772;8.846;2022-09-04T01:02:42;4.53;;;4.23;;
253;SDS011;590;48.772;8.846;2022-09-04T01:12:00;3.83;;;3.63;;
253;SDS011;590;48.772;8.846;2022-09-04T01:14:39;5.10;;;4.40;;
253;SDS011;590;48.772;8.846;2022-09-04T01:17:20;4.10;;;3.90;;
253;SDS011;590;48.772;8.846;2022-09-04T01:19:57;4.57;;;4.17;;
253;SDS011;590;48.772;8.846;2022-09-04T01:28:32;4.87;;;4.57;;
253;SDS011;590;48.772;8.846;2022-09-04T01:31:08;5.57;;;5.27;;
253;SDS011;590;48.772;8.846;2022-09-04T01:33:45;4.90;;;4.60;;
253;SDS011;590;48.772;8.846;2022-09-04T01:36:24;6.17;;;4.37;;
253;SDS011;590;48.772;8.846;2022-09-04T01:39:01;4.80;;;4.50;;
253;SDS011;590;48.772;8.846;2022-09-04T01:41:31;4.13;;;3.90;;
253;SDS011;590;48.772;8.846;2022-09-04T01:44:05;4.60;;;4.30;;
253;SDS011;590;48.772;8.846;2022-09-04T01:46:39;4.97;;;4.70;;
253;SDS011;590;48.772;8.846;2022-09-04T01:49:19;5.27;;;4.30;;
253;SDS011;590;48.772;8.846;2022-09-04T01:51:59;4.97;;;4.67;;
253;SDS011;590;48.772;8.846;2022-09-04T01:54:41;5.07;;;4.77;;
253;SDS011;590;48.772;8.846;2022-09-04T01:57:21;4.87;;;4.57;;
253;SDS011;590;48.772;8.846;2022-09-04T02:00:00;5.23;;;4.93;;
253;SDS011;590;48.772;8.846;2022-09-04T02:02:39;6.27;;;4.70;;
253;SDS011;590;48.772;8.846;2022-09-04T02:05:25;5.00;;;4.70;;
253;SDS011;590;48.772;8.846;2022-09-04T02:08:02;4.73;;;4.47;;
253;SDS011;590;48.772;8.846;2022-09-04T02:10:41;3.40;;;3.20;;
253;SDS011;590;48.772;8.846;2022-09-04T02:13:18;3.70;;;3.50;;
253;SDS011;590;48.772;8.846;2022-09-04T02:15:53;3.90;;;3.70;;
253;SDS011;590;48.772;8.846;2022-09-04T02:18:31;3.70;;;3.50;;
253;SDS011;590;48.772;8.846;2022-09-04T02:21:09;4.00;;;3.80;;
253;SDS011;590;48.772;8.846;2022-09-04T02:23:48;3.80;;;3.60;;
253;SDS011;590;48.772;8.846;2022-09-04T02:26:28;4.10;;;3.90;;
253;SDS011;590;48.772;8.846;2022-09-04T02:29:02;3.77;;;3.57;;
253;SDS011;590;48.772;8.846;2022-09-04T02:31:39;3.50;;;3.30;;
253;SDS011;590;48.772;8.846;2022-09-04T02:34:15;4.13;;;3.77;;
253;SDS011;590;48.772;8.846;2022-09-04T02:36:52;3.70;;;3.50;;
253;SDS011;590;48.772;8.846;2022-09-04T02:39:29;5.20;;;4.07;;
253;SDS011;590;48.772;8.846;2022-09-04T02:42:09;5.40;;;4.50;;
253;SDS011;590;48.772;8.846;2022-09-04T02:44:45;3.70;;;3.50;;
253;SDS011;590;48.772;8.846;2022-09-04T02:47:25;4.60;;;4.30;;
253;SDS011;590;48.772;8.846;2022-09-04T02:49:58;4.20;;;3.70;;
253;SDS011;590;48.772;8.846;2022-09-04T02:52:43;4.77;;;4.47;;
253;SDS011;590;48.772;8.846;2022-09-04T02:55:26;4.57;;;4.33;;
253;SDS011;590;48.772;8.846;2022-09-04T02:58:11;4.43;;;4.13;;
253;SDS011;590;48.772;8.846;2022-09-04T03:00:51;3.80;;;3.60;;
253;SDS011;590;48.772;8.846;2022-09-04T03:03:28;3.80;;;3.60;;
253;SDS011;590;48.772;8.846;2022-09-04T03:06:04;3.60;;;3.40;;
253;SDS011;590;48.772;8.846;2022-09-04T03:08:37;3.50;;;3.30;;
253;SDS011;590;48.772;8.846;2022-09-04T03:11:13;3.23;;;3.03;;
253;SDS011;590;48.772;8.846;2022-09-04T03:13:45;4.40;;;3.93;;
253;SDS011;590;48.772;8.846;2022-09-04T03:16:20;4.53;;;4.10;;
253;SDS011;590;48.772;8.846;2022-09-04T03:19:00;4.37;;;3.80;;
253;SDS011;590;48.772;8.846;2022-09-04T03:21:38;3.77;;;3.40;;
253;SDS011;590;48.772;8.846;2022-09-04T03:24:11;3.43;;;3.23;;
253;SDS011;590;48.772;8.846;2022-09-04T03:26:44;3.43;;;3.23;;
253;SDS011;590;48.772;8.846;2022-09-04T03:29:18;3.40;;;3.20;;
253;SDS011;590;48.772;8.846;2022-09-04T03:31:57;4.60;;;4.30;;
253;SDS011;590;48.772;8.846;2022-09-04T03:34:45;4.03;;;3.80;;
253;SDS011;590;48.772;8.846;2022-09-04T03:37:25;3.47;;;3.30;;
253;SDS011;590;48.772;8.846;2022-09-04T03:40:14;3.67;;;3.47;;
253;SDS011;590;48.772;8.846;2022-09-04T03:42:58;3.57;;;3.37;;
253;SDS011;590;48.772;8.846;2022-09-04T03:45:38;3.80;;;3.60;;
253;SDS011;590;48.772;8.846;2022-09-04T03:48:24;3.50;;;3.30;;
253;SDS011;590;48.772;8.846;2022-09-04T03:51:00;5.00;;;4.00;;
253;SDS011;590;48.772;8.846;2022-09-04T03:53:38;3.87;;;3.67;;
253;SDS011;590;48.772;8.846;2022-09-04T03:56:16;5.03;;;3.80;;
253;SDS011;590;48.772;8.846;2022-09-04T03:59:04;3.77;;;3.57;;
253;SDS011;590;48.772;8.846;2022-09-04T04:01:36;3.90;;;3.70;;
253;SDS011;590;48.772;8.846;2022-09-04T04:07:22;3.70;;;3.50;;
253;SDS011;590;48.772;8.846;2022-09-04T04:09:58;3.73;;;3.53;;
253;SDS011;590;48.772;8.846;2022-09-04T04:15:45;3.47;;;3.27;;
253;SDS011;590;48.772;8.846;2022-09-04T04:18:31;4.10;;;3.90;;
253;SDS011;590;48.772;8.846;2022-09-04T04:21:11;5.33;;;4.60;;
253;SDS011;590;48.772;8.846;2022-09-04T04:23:55;4.53;;;4.23;;
253;SDS011;590;48.772;8.846;2022-09-04T04:26:43;4.03;;;3.83;;
253;SDS011;590;48.772;8.846;2022-09-04T04:29:31;4.23;;;3.97;;
253;SDS011;590;48.772;8.846;2022-09-04T04:32:21;3.33;;;3.13;;
253;SDS011;590;48.772;8.846;2022-09-04T04:35:08;3.73;;;3.40;;
253;SDS011;590;48.772;8.846;2022-09-04T04:37:47;3.67;;;3.47;;
253;SDS011;590;48.772;8.846;2022-09-04T04:40:28;4.30;;;4.00;;
253;SDS011;590;48.772;8.846;2022-09-04T04:43:15;4.33;;;4.03;;
253;SDS011;590;48.772;8.846;2022-09-04T04:45:49;4.23;;;4.00;;
253;SDS011;590;48.772;8.846;2022-09-04T04:48:27;6.10;;;3.93;;
253;SDS011;590;48.772;8.846;2022-09-04T04:51:28;3.50;;;3.30;;
253;SDS011;590;48.772;8.846;2022-09-04T04:54:12;3.73;;;3.53;;
253;SDS011;590;48.772;8.846;2022-09-04T04:56:52;3.80;;;3.60;;
253;SDS011;590;48.772;8.846;2022-09-04T04:59:29;3.17;;;2.97;;
253;SDS011;590;48.772;8.846;2022-09-04T05:02:13;4.97;;;4.00;;
253;SDS011;590;48.772;8.846;2022-09-04T05:04:48;3.80;;;3.47;;
253;SDS011;590;48.772;8.846;2022-09-04T05:07:26;3.77;;;3.37;;
253;SDS011;590;48.772;8.846;2022-09-04T05:10:03;3.53;;;3.33;;
253;SDS011;590;48.772;8.846;2022-09-04T05:12:44;3.37;;;3.13;;
253;SDS011;590;48.772;8.846;2022-09-04T05:15:22;3.47;;;3.30;;
253;SDS011;590;48.772;8.846;2022-09-04T05:18:07;3.70;;;3.50;;
253;SDS011;590;48.772;8.846;2022-09-04T05:20:41;3.93;;;3.70;;
253;SDS011;590;48.772;8.846;2022-09-04T05:23:17;3.40;;;2.80;;
253;SDS011;590;48.772;8.846;2022-09-04T05:25:58;3.67;;;3.47;;
253;SDS011;590;48.772;8.846;2022-09-04T05:28:39;3.10;;;2.90;;
253;SDS011;590;48.772;8.846;2022-09-04T05:31:18;3.30;;;3.10;;
253;SDS011;590;48.772;8.846;2022-09-04T05:33:53;3.10;;;2.90;;
253;SDS011;590;48.772;8.846;2022-09-04T05:36:28;3.13;;;2.93;;
253;SDS011;590;48.772;8.846;2022-09-04T05:39:08;2.67;;;2.47;;
253;SDS011;590;48.772;8.846;2022-09-04T05:41:48;3.10;;;2.90;;
253;SDS011;590;48.772;8.846;2022-09-04T05:44:34;2.83;;;2.63;;
253;SDS011;590;48.772;8.846;2022-09-04T05:47:13;2.77;;;2.57;;
253;SDS011;590;48.772;8.846;2022-09-04T05:49:59;3.20;;;3.00;;
253;SDS011;590;48.772;8.846;2022-09-04T05:52:45;3.07;;;2.87;;
253;SDS011;590;48.772;8.846;2022-09-04T05:58:47;3.40;;;3.20;;
253;SDS011;590;48.772;8.846;2022-09-04T06:01:32;4.37;;;3.10;;
253;SDS011;590;48.772;8.846;2022-09-04T06:07:25;3.33;;;3.13;;
253;SDS011;590;48.772;8.846;2022-09-04T06:09:58;3.50;;;3.30;;
253;SDS011;590;48.772;8.846;2022-09-04T06:15:45;3.27;;;3.07;;
253;SDS011;590;48.772;8.846;2022-09-04T06:18:41;3.13;;;2.93;;
253;SDS011;590;48.772;8.846;2022-09-04T06:21:31;6.10;;;3.13;;
253;SDS011;590;48.772;8.846;2022-09-04T06:24:17;2.87;;;2.67;;
253;SDS011;590;48.772;8.846;2022-09-04T06:27:01;2.63;;;2.43;;
253;SDS011;590;48.772;8.846;2022-09-04T06:29:49;2.73;;;2.53;;
253;SDS011;590;48.772;8.846;2022-09-04T06:32:34;2.90;;;2.70;;
253;SDS011;590;48.772;8.846;2022-09-04T06:35:26;2.80;;;2.60;;
253;SDS011;590;48.772;8.846;2022-09-04T06:38:06;3.27;;;3.07;;
253;SDS011;590;48.772;8.846;2022-09-04T06:40:52;4.43;;;2.87;;
253;SDS011;590;48.772;8.846;2022-09-04T06:43:35;3.13;;;2.93;;
253;SDS011;590;48.772;8.846;2022-09-04T06:46:12;3.63;;;3.13;;
253;SDS011;590;48.772;8.846;2022-09-04T06:48:51;3.40;;;3.20;;
253;SDS011;590;48.772;8.846;2022-09-04T06:51:39;3.37;;;3.17;;
253;SDS011;590;48.772;8.846;2022-09-04T06:54:20;3.27;;;3.07;;
253;SDS011;590;48.772;8.846;2022-09-04T06:57:08;4.13;;;3.20;;
253;SDS011;590;48.772;8.846;2022-09-04T07:00:04;2.97;;;2.77;;
253;SDS011;590;48.772;8.846;2022-09-04T07:02:41;3.57;;;3.37;;
253;SDS011;590;48.772;8.846;2022-09-04T07:05:26;3.57;;;3.37;;
253;SDS011;590;48.772;8.846;2022-09-04T07:08:01;3.47;;;3.27;;
253;SDS011;590;48.772;8.846;2022-09-04T07:10:37;3.53;;;3.33;;
253;SDS011;590;48.772;8.846;2022-09-04T07:16:24;3.07;;;2.87;;
253;SDS011;590;48.772;8.846;2022-09-04T07:19:05;3.33;;;3.13;;
253;SDS011;590;48.772;8.846;2022-09-04T07:21:47;2.60;;;2.40;;
253;SDS011;590;48.772;8.846;2022-09-04T07:24:35;2.93;;;2.73;;
253;SDS011;590;48.772;8.846;2022-09-04T07:27:33;2.63;;;2.43;;
253;SDS011;590;48.772;8.846;2022-09-04T07:31:04;2.70;;;2.50;;
253;SDS011;590;48.772;8.846;2022-09-04T07:33:55;2.70;;;2.50;;
253;SDS011;590;48.772;8.846;2022-09-04T07:37:08;2.90;;;2.57;;
253;SDS011;590;48.772;8.846;2022-09-04T07:40:16;2.90;;;2.70;;
253;SDS011;590;48.772;8.846;2022-09-04T07:43:26;3.30;;;2.23;;
253;SDS011;590;48.772;8.846;2022-09-04T07:46:55;3.20;;;2.77;;
253;SDS011;590;48.772;8.846;2022-09-04T07:50:28;2.43;;;1.93;;
253;SDS011;590;48.772;8.846;2022-09-04T07:53:43;2.70;;;2.30;;
253;SDS011;590;48.772;8.846;2022-09-04T08:01:35;2.63;;;2.30;;
253;SDS011;590;48.772;8.846;2022-09-04T08:11:19;2.13;;;1.97;;
253;SDS011;590;48.772;8.846;2022-09-04T08:14:32;3.90;;;3.57;;
253;SDS011;590;48.772;8.846;2022-09-04T08:21:29;3.43;;;2.10;;
253;SDS011;590;48.772;8.846;2022-09-04T08:29:37;1.90;;;1.80;;
253;SDS011;590;48.772;8.846;2022-09-04T08:33:22;1.70;;;1.60;;
253;SDS011;590;48.772;8.846;2022-09-04T08:56:06;2.37;;;2.17;;
253;SDS011;590;48.772;8.846;2022-09-04T09:00:08;1.80;;;1.77;;
253;SDS011;590;48.772;8.846;2022-09-04T09:02:52;2.00;;;1.90;;
253;SDS011;590;48.772;8.846;2022-09-04T09:05:45;1.57;;;1.43;;
253;SDS011;590;48.772;8.846;2022-09-04T09:08:47;1.40;;;1.37;;
253;SDS011;590;48.772;8.846;2022-09-04T09:11:51;1.90;;;1.80;;
253;SDS011;590;48.772;8.846;2022-09-04T09:15:14;2.43;;;2.10;;
253;SDS011;590;48.772;8.846;2022-09-04T09:18:14;1.50;;;1.40;;
253;SDS011;590;48.772;8.846;2022-09-04T09:21:04;1.77;;;1.73;;
253;SDS011;590;48.772;8.846;2022-09-04T09:23:38;2.60;;;1.80;;
253;SDS011;590;48.772;8.846;2022-09-04T09:26:22;1.77;;;1.67;;
253;SDS011;590;48.772;8.846;2022-09-04T09:32:18;1.80;;;1.70;;
253;SDS011;590;48.772;8.846;2022-09-04T09:41:41;1.87;;;1.77;;
253;SDS011;590;48.772;8.846;2022-09-04T09:44:27;1.67;;;1.57;;
253;SDS011;590;48.772;8.846;2022-09-04T09:50:28;1.60;;;1.50;;
253;SDS011;590;48.772;8.846;2022-09-04T09:53:47;1.47;;;1.37;;
253;SDS011;590;48.772;8.846;2022-09-04T10:05:55;1.87;;;1.77;;
253;SDS011;590;48.772;8.846;2022-09-04T10:08:47;2.47;;;2.27;;
253;SDS011;590;48.772;8.846;2022-09-04T10:15:20;1.60;;;1.50;;
253;SDS011;590;48.772;8.846;2022-09-04T10:18:16;3.13;;;1.70;;
253;SDS011;590;48.772;8.846;2022-09-04T10:27:47;1.57;;;1.47;;
253;SDS011;590;48.772;8.846;2022-09-04T10:30:50;1.77;;;1.70;;
253;SDS011;590;48.772;8.846;2022-09-04T10:33:26;1.33;;;1.23;;
253;SDS011;590;48.772;8.846;2022-09-04T10:36:09;1.60;;;1.50;;
253;SDS011;590;48.772;8.846;2022-09-04T10:38:52;1.30;;;1.20;;
253;SDS011;590;48.772;8.846;2022-09-04T10:42:00;1.27;;;1.17;;
253;SDS011;590;48.772;8.846;2022-09-04T10:44:59;1.60;;;1.50;;
253;SDS011;590;48.772;8.846;2022-09-04T10:47:42;1.77;;;1.73;;
253;SDS011;590;48.772;8.846;2022-09-04T10:50:30;2.33;;;2.13;;
253;SDS011;590;48.772;8.846;2022-09-04T10:53:23;1.67;;;1.57;;
253;SDS011;590;48.772;8.846;2022-09-04T10:56:11;2.20;;;1.67;;
253;SDS011;590;48.772;8.846;2022-09-04T11:01:59;1.40;;;1.30;;
253;SDS011;590;48.772;8.846;2022-09-04T11:05:03;2.13;;;1.70;;
253;SDS011;590;48.772;8.846;2022-09-04T11:07:50;1.90;;;1.80;;
253;SDS011;590;48.772;8.846;2022-09-04T11:10:52;1.93;;;1.83;;
253;SDS011;590;48.772;8.846;2022-09-04T11:16:37;1.70;;;1.60;;
253;SDS011;590;48.772;8.846;2022-09-04T11:19:40;1.93;;;1.57;;
253;SDS011;590;48.772;8.846;2022-09-04T11:22:50;1.67;;;1.57;;
253;SDS011;590;48.772;8.846;2022-09-04T11:25:55;1.63;;;1.53;;
253;SDS011;590;48.772;8.846;2022-09-04T11:28:50;1.87;;;1.73;;
253;SDS011;590;48.772;8.846;2022-09-04T11:31:46;1.67;;;1.33;;
253;SDS011;590;48.772;8.846;2022-09-04T11:37:46;1.57;;;1.47;;
253;SDS011;590;48.772;8.846;2022-09-04T11:40:32;1.47;;;1.37;;
253;SDS011;590;48.772;8.846;2022-09-04T11:43:30;2.30;;;1.53;;
253;SDS011;590;48.772;8.846;2022-09-04T11:46:22;1.90;;;1.63;;
253;SDS011;590;48.772;8.846;2022-09-04T11:49:15;1.50;;;1.40;;
253;SDS011;590;48.772;8.846;2022-09-04T11:52:15;1.73;;;1.63;;
253;SDS011;590;48.772;8.846;2022-09-04T11:58:12;1.40;;;1.30;;
253;SDS011;590;48.772;8.846;2022-09-04T12:00:56;2.50;;;1.73;;
253;SDS011;590;48.772;8.846;2022-09-04T12:03:51;1.50;;;1.40;;
253;SDS011;590;48.772;8.846;2022-09-04T12:06:36;1.77;;;1.67;;
253;SDS011;590;48.772;8.846;2022-09-04T12:09:27;1.67;;;1.57;;
253;SDS011;590;48.772;8.846;2022-09-04T12:12:20;1.67;;;1.60;;
253;SDS011;590;48.772;8.846;2022-09-04T12:15:11;4.07;;;1.50;;
253;SDS011;590;48.772;8.846;2022-09-04T12:18:04;1.37;;;1.27;;
253;SDS011;590;48.772;8.846;2022-09-04T12:21:01;1.77;;;1.67;;
253;SDS011;590;48.772;8.846;2022-09-04T12:24:09;1.47;;;1.37;;
253;SDS011;590;48.772;8.846;2022-09-04T12:29:52;1.43;;;1.43;;
253;SDS011;590;48.772;8.846;2022-09-04T12:35:39;1.80;;;1.70;;
253;SDS011;590;48.772;8.846;2022-09-04T12:38:45;1.53;;;1.43;;
253;SDS011;590;48.772;8.846;2022-09-04T12:41:34;1.93;;;1.83;;
253;SDS011;590;48.772;8.846;2022-09-04T12:44:16;1.50;;;1.40;;
253;SDS011;590;48.772;8.846;2022-09-04T12:46:56;1.57;;;1.50;;
253;SDS011;590;48.772;8.846;2022-09-04T12:49:54;1.70;;;1.60;;
253;SDS011;590;48.772;8.846;2022-09-04T12:52:42;1.40;;;1.30;;
253;SDS011;590;48.772;8.846;2022-09-04T12:55:24;1.50;;;1.40;;
253;SDS011;590;48.772;8.846;2022-09-04T12:58:05;2.63;;;1.70;;
253;SDS011;590;48.772;8.846;2022-09-04T13:00:41;1.97;;;1.90;;
253;SDS011;590;48.772;8.846;2022-09-04T13:03:21;1.67;;;1.57;;
253;SDS011;590;48.772;8.846;2022-09-04T13:05:59;1.60;;;1.50;;
253;SDS011;590;48.772;8.846;2022-09-04T13:08:39;1.87;;;1.77;;
253;SDS011;590;48.772;8.846;2022-09-04T13:11:21;1.70;;;1.60;;
253;SDS011;590;48.772;8.846;2022-09-04T13:14:10;1.70;;;1.60;;
253;SDS011;590;48.772;8.846;2022-09-04T13:16:53;1.70;;;1.60;;
253;SDS011;590;48.772;8.846;2022-09-04T13:19:29;1.90;;;1.60;;
253;SDS011;590;48.772;8.846;2022-09-04T13:22:09;2.00;;;1.13;;
253;SDS011;590;48.772;8.846;2022-09-04T13:24:48;2.07;;;1.93;;
253;SDS011;590;48.772;8.846;2022-09-04T13:27:27;1.40;;;1.30;;
253;SDS011;590;48.772;8.846;2022-09-04T13:30:06;1.40;;;1.30;;
253;SDS011;590;48.772;8.846;2022-09-04T13:35:55;1.43;;;1.33;;
253;SDS011;590;48.772;8.846;2022-09-04T13:38:45;2.03;;;1.70;;
253;SDS011;590;48.772;8.846;2022-09-04T13:41:57;2.50;;;1.73;;
253;SDS011;590;48.772;8.846;2022-09-04T13:44:42;1.87;;;1.77;;
253;SDS011;590;48.772;8.846;2022-09-04T13:47:22;2.43;;;1.43;;
253;SDS011;590;48.772;8.846;2022-09-04T13:49:59;2.00;;;1.90;;
253;SDS011;590;48.772;8.846;2022-09-04T13:52:36;1.90;;;1.80;;
253;SDS011;590;48.772;8.846;2022-09-04T13:55:11;1.77;;;1.67;;
253;SDS011;590;48.772;8.846;2022-09-04T13:57:44;1.50;;;1.40;;
253;SDS011;590;48.772;8.846;2022-09-04T14:00:25;1.80;;;1.70;;
253;SDS011;590;48.772;8.846;2022-09-04T14:02:59;1.73;;;1.63;;
253;SDS011;590;48.772;8.846;2022-09-04T14:05:32;1.60;;;1.50;;
253;SDS011;590;48.772;8.846;2022-09-04T14:08:03;2.07;;;1.50;;
253;SDS011;590;48.772;8.846;2022-09-04T14:10:44;1.40;;;1.30;;
253;SDS011;590;48.772;8.846;2022-09-04T14:13:30;1.67;;;1.57;;
253;SDS011;590;48.772;8.846;2022-09-04T14:16:10;1.80;;;1.70;;
253;SDS011;590;48.772;8.846;2022-09-04T14:18:55;2.20;;;2.00;;
253;SDS011;590;48.772;8.846;2022-09-04T14:21:59;3.03;;;1.83;;
253;SDS011;590;48.772;8.846;2022-09-04T14:24:41;1.67;;;1.57;;
253;SDS011;590;48.772;8.846;2022-09-04T14:27:19;1.73;;;1.67;;
253;SDS011;590;48.772;8.846;2022-09-04T14:29:59;2.53;;;2.00;;
253;SDS011;590;48.772;8.846;2022-09-04T14:32:35;1.60;;;1.50;;
253;SDS011;590;48.772;8.846;2022-09-04T14:35:16;2.13;;;1.97;;
253;SDS011;590;48.772;8.846;2022-09-04T14:37:57;1.73;;;1.43;;
253;SDS011;590;48.772;8.846;2022-09-04T14:40:36;1.87;;;1.77;;
253;SDS011;590;48.772;8.846;2022-09-04T14:43:08;1.80;;;1.70;;
253;SDS011;590;48.772;8.846;2022-09-04T14:45:49;2.73;;;1.77;;
253;SDS011;590;48.772;8.846;2022-09-04T14:48:33;1.80;;;1.70;;
253;SDS011;590;48.772;8.846;2022-09-04T14:51:13;1.63;;;1.37;;
253;SDS011;590;48.772;8.846;2022-09-04T14:53:46;1.83;;;1.73;;
253;SDS011;590;48.772;8.846;2022-09-04T14:56:21;1.77;;;1.67;;
253;SDS011;590;48.772;8.846;2022-09-04T15:05:50;1.80;;;1.70;;
253;SDS011;590;48.772;8.846;2022-09-04T15:08:27;1.90;;;1.80;;
253;SDS011;590;48.772;8.846;2022-09-04T15:11:02;1.87;;;1.73;;
253;SDS011;590;48.772;8.846;2022-09-04T15:13:38;1.60;;;1.50;;
253;SDS011;590;48.772;8.846;2022-09-04T15:16:19;1.90;;;1.80;;
253;SDS011;590;48.772;8.846;2022-09-04T15:18:56;1.97;;;1.87;;
253;SDS011;590;48.772;8.846;2022-09-04T15:21:33;1.70;;;1.60;;
253;SDS011;590;48.772;8.846;2022-09-04T15:24:13;2.70;;;1.70;;
253;SDS011;590;48.772;8.846;2022-09-04T15:26:52;1.93;;;1.90;;
253;SDS011;590;48.772;8.846;2022-09-04T15:29:27;2.93;;;1.80;;
253;SDS011;590;48.772;8.846;2022-09-04T15:32:04;1.77;;;1.67;;
253;SDS011;590;48.772;8.846;2022-09-04T15:34:39;1.83;;;1.47;;
253;SDS011;590;48.772;8.846;2022-09-04T15:37:08;1.70;;;1.60;;
253;SDS011;590;48.772;8.846;2022-09-04T15:39:43;1.93;;;1.73;;
253;SDS011;590;48.772;8.846;2022-09-04T15:42:29;1.70;;;1.60;;
253;SDS011;590;48.772;8.846;2022-09-04T15:45:03;1.53;;;1.43;;
253;SDS011;590;48.772;8.846;2022-09-04T15:47:52;2.00;;;1.70;;
253;SDS011;590;48.772;8.846;2022-09-04T15:50:33;1.70;;;1.60;;
253;SDS011;590;48.772;8.846;2022-09-04T15:53:11;2.00;;;1.90;;
253;SDS011;590;48.772;8.846;2022-09-04T15:56:00;1.93;;;1.80;;
253;SDS011;590;48.772;8.846;2022-09-04T15:58:43;1.90;;;1.47;;
253;SDS011;590;48.772;8.846;2022-09-04T16:01:20;1.80;;;1.70;;
253;SDS011;590;48.772;8.846;2022-09-04T16:03:57;1.97;;;1.60;;
253;SDS011;590;48.772;8.846;2022-09-04T16:06:35;1.80;;;1.73;;
253;SDS011;590;48.772;8.846;2022-09-04T16:09:10;1.63;;;1.53;;
253;SDS011;590;48.772;8.846;2022-09-04T16:11:52;1.73;;;1.63;;
253;SDS011;590;48.772;8.846;2022-09-04T16:14:26;2.33;;;2.13;;
253;SDS011;590;48.772;8.846;2022-09-04T16:17:00;2.23;;;2.03;;
253;SDS011;590;48.772;8.846;2022-09-04T16:19:33;3.13;;;1.93;;
253;SDS011;590;48.772;8.846;2022-09-04T16:22:15;2.07;;;1.93;;
253;SDS011;590;48.772;8.846;2022-09-04T16:24:53;2.13;;;2.00;;
253;SDS011;590;48.772;8.846;2022-09-04T16:27:36;2.70;;;1.80;;
253;SDS011;590;48.772;8.846;2022-09-04T16:30:22;2.20;;;2.00;;
253;SDS011;590;48.772;8.846;2022-09-04T16:32:55;1.87;;;1.77;;
253;SDS011;590;48.772;8.846;2022-09-04T16:35:24;1.60;;;1.50;;
253;SDS011;590;48.772;8.846;2022-09-04T16:37:55;1.60;;;1.50;;
253;SDS011;590;48.772;8.846;2022-09-04T16:40:30;1.70;;;1.60;;
253;SDS011;590;48.772;8.846;2022-09-04T16:43:07;2.20;;;2.00;;
253;SDS011;590;48.772;8.846;2022-09-04T16:45:44;1.87;;;1.77;;
253;SDS011;590;48.772;8.846;2022-09-04T16:48:19;1.80;;;1.70;;
253;SDS011;590;48.772;8.846;2022-09-04T16:51:01;2.50;;;1.53;;
253;SDS011;590;48.772;8.846;2022-09-04T16:53:54;1.90;;;1.80;;
253;SDS011;590;48.772;8.846;2022-09-04T16:56:33;1.80;;;1.70;;
253;SDS011;590;48.772;8.846;2022-09-04T17:01:53;1.87;;;1.80;;
253;SDS011;590;48.772;8.846;2022-09-04T17:04:32;3.40;;;1.93;;
253;SDS011;590;48.772;8.846;2022-09-04T17:07:10;1.77;;;1.70;;
253;SDS011;590;48.772;8.846;2022-09-04T17:09:50;2.50;;;2.30;;
253;SDS011;590;48.772;8.846;2022-09-04T17:15:24;2.13;;;1.97;;
253;SDS011;590;48.772;8.846;2022-09-04T17:17:56;1.57;;;1.47;;
253;SDS011;590;48.772;8.846;2022-09-04T17:20:27;1.93;;;1.83;;
253;SDS011;590;48.772;8.846;2022-09-04T17:23:21;2.00;;;1.93;;
253;SDS011;590;48.772;8.846;2022-09-04T17:26:14;1.77;;;1.67;;
253;SDS011;590;48.772;8.846;2022-09-04T17:29:13;1.90;;;1.80;;
253;SDS011;590;48.772;8.846;2022-09-04T17:32:03;1.93;;;1.83;;
253;SDS011;590;48.772;8.846;2022-09-04T17:35:00;2.37;;;2.00;;
253;SDS011;590;48.772;8.846;2022-09-04T17:38:00;1.70;;;1.60;;
253;SDS011;590;48.772;8.846;2022-09-04T17:41:02;1.73;;;1.63;;
253;SDS011;590;48.772;8.846;2022-09-04T17:44:05;1.90;;;1.80;;
253;SDS011;590;48.772;8.846;2022-09-04T17:46:47;1.90;;;1.80;;
253;SDS011;590;48.772;8.846;2022-09-04T17:49:26;2.20;;;2.00;;
253;SDS011;590;48.772;8.846;2022-09-04T17:52:02;4.40;;;4.10;;
253;SDS011;590;48.772;8.846;2022-09-04T17:54:36;3.93;;;3.70;;
253;SDS011;590;48.772;8.846;2022-09-04T17:57:17;3.40;;;3.20;;
253;SDS011;590;48.772;8.846;2022-09-04T17:59:52;3.63;;;3.43;;
253;SDS011;590;48.772;8.846;2022-09-04T18:02:27;4.63;;;3.30;;
253;SDS011;590;48.772;8.846;2022-09-04T18:05:08;4.17;;;2.90;;
253;SDS011;590;48.772;8.846;2022-09-04T18:07:41;3.27;;;3.07;;
253;SDS011;590;48.772;8.846;2022-09-04T18:10:37;3.20;;;2.90;;
253;SDS011;590;48.772;8.846;2022-09-04T18:13:20;5.07;;;3.47;;
253;SDS011;590;48.772;8.846;2022-09-04T18:16:06;3.23;;;3.03;;
253;SDS011;590;48.772;8.846;2022-09-04T18:18:45;2.90;;;2.70;;
253;SDS011;590;48.772;8.846;2022-09-04T18:21:18;2.57;;;2.37;;
253;SDS011;590;48.772;8.846;2022-09-04T18:23:52;2.70;;;2.50;;
253;SDS011;590;48.772;8.846;2022-09-04T18:26:25;2.87;;;2.67;;
253;SDS011;590;48.772;8.846;2022-09-04T18:29:12;2.80;;;2.60;;
253;SDS011;590;48.772;8.846;2022-09-04T18:32:15;2.60;;;2.40;;
253;SDS011;590;48.772;8.846;2022-09-04T18:35:09;2.70;;;2.50;;
253;SDS011;590;48.772;8.846;2022-09-04T18:38:09;2.80;;;2.60;;
253;SDS011;590;48.772;8.846;2022-09-04T18:40:45;3.00;;;2.80;;
253;SDS011;590;48.772;8.846;2022-09-04T18:43:38;2.53;;;2.30;;
253;SDS011;590;48.772;8.846;2022-09-04T18:46:30;3.43;;;3.23;;
253;SDS011;590;48.772;8.846;2022-09-04T18:49:19;3.63;;;3.00;;
253;SDS011;590;48.772;8.846;2022-09-04T18:52:09;3.50;;;3.33;;
253;SDS011;590;48.772;8.846;2022-09-04T18:54:46;3.50;;;3.23;;
253;SDS011;590;48.772;8.846;2022-09-04T18:57:21;4.40;;;3.03;;
253;SDS011;590;48.772;8.846;2022-09-04T18:59:58;3.10;;;2.90;;
253;SDS011;590;48.772;8.846;2022-09-04T19:02:40;2.67;;;2.47;;
253;SDS011;590;48.772;8.846;2022-09-04T19:05:19;3.20;;;2.97;;
253;SDS011;590;48.772;8.846;2022-09-04T19:07:50;3.20;;;3.00;;
253;SDS011;590;48.772;8.846;2022-09-04T19:10:24;2.93;;;2.73;;
253;SDS011;590;48.772;8.846;2022-09-04T19:12:55;3.00;;;2.80;;
253;SDS011;590;48.772;8.846;2022-09-04T19:15:35;3.50;;;2.03;;
253;SDS011;590;48.772;8.846;2022-09-04T19:18:21;3.10;;;2.90;;
253;SDS011;590;48.772;8.846;2022-09-04T19:20:57;3.33;;;3.10;;
253;SDS011;590;48.772;8.846;2022-09-04T19:23:41;3.73;;;2.60;;
253;SDS011;590;48.772;8.846;2022-09-04T19:26:19;2.63;;;2.43;;
253;SDS011;590;48.772;8.846;2022-09-04T19:28:52;2.60;;;2.40;;
253;SDS011;590;48.772;8.846;2022-09-04T19:31:31;2.90;;;2.70;;
253;SDS011;590;48.772;8.846;2022-09-04T19:34:07;2.80;;;2.60;;
253;SDS011;590;48.772;8.846;2022-09-04T19:36:43;3.20;;;3.00;;
253;SDS011;590;48.772;8.846;2022-09-04T19:39:21;3.30;;;3.10;;
253;SDS011;590;48.772;8.846;2022-09-04T19:42:19;2.93;;;2.77;;
253;SDS011;590;48.772;8.846;2022-09-04T19:45:11;2.67;;;2.50;;
253;SDS011;590;48.772;8.846;2022-09-04T19:48:19;2.90;;;2.73;;
253;SDS011;590;48.772;8.846;2022-09-04T19:50:58;3.17;;;2.97;;
253;SDS011;590;48.772;8.846;2022-09-04T19:53:53;2.63;;;2.33;;
253;SDS011;590;48.772;8.846;2022-09-04T19:56:29;3.43;;;2.67;;
253;SDS011;590;48.772;8.846;2022-09-04T19:59:22;2.47;;;2.27;;